Time;durP1;ratioP1;P1;durP2;ratioP2;P2;SDS_P1;SDS_P2;PMS_P1;PMS_P2;Temp;Humidity;BMP_temperature;BMP_pressure;BME280_temperature;BME280_humidity;BME280_pressure;Samples;Min_cycle;Max_cycle;Signal;HPM_P1;HPM_P2
2023/04/01 00:00:45;;;;;;;7.72;5.00;;;;;;;8.50;100.00;99097.25;4896037;29;20048;-71
2023/04/01 00:03:11;;;;;;;9.10;4.47;;;;;;;8.49;100.00;99092.94;4895489;29;20077;-71
2023/04/01 00:05:37;;;;;;;8.38;5.00;;;;;;;8.48;100.00;99099.16;4895346;29;20049;-72
2023/04/01 00:08:02;;;;;;;8.60;4.82;;;;;;;8.47;100.00;99089.56;4879328;29;20555;-72
2023/04/01 00:10:28;;;;;;;8.70;4.97;;;;;;;8.46;100.00;99093.16;4897112;29;20322;-72
2023/04/01 00:13:04;;;;;;;8.65;5.35;;;;;;;8.46;100.00;99082.59;4897858;29;20059;-72
2023/04/01 00:15:30;;;;;;;7.18;4.70;;;;;;;8.46;100.00;99093.16;4841065;29;20072;-72
2023/04/01 00:17:55;;;;;;;7.82;4.60;;;;;;;8.46;100.00;99090.53;4842421;29;20057;-72
2023/04/01 00:20:21;;;;;;;7.53;4.55;;;;;;;8.46;100.00;99095.78;4860087;29;20118;-72
2023/04/01 00:22:47;;;;;;;7.95;4.90;;;;;;;8.47;100.00;99094.84;4854613;29;20053;-71
2023/04/01 00:25:14;;;;;;;8.65;4.57;;;;;;;8.48;100.00;99095.66;4857524;29;20057;-72
2023/04/01 00:27:40;;;;;;;8.70;4.95;;;;;;;8.48;100.00;99090.41;4839483;29;20049;-71
2023/04/01 00:30:07;;;;;;;9.68;5.20;;;;;;;8.47;100.00;99089.56;4841812;29;20121;-70
2023/04/01 00:32:33;;;;;;;9.85;5.53;;;;;;;8.47;100.00;99094.84;4838319;29;20076;-71
2023/04/01 00:34:59;;;;;;;8.55;5.07;;;;;;;8.47;100.00;99089.56;4837916;29;20516;-72
2023/04/01 00:37:25;;;;;;;8.20;5.45;;;;;;;8.49;100.00;99092.13;4855255;29;20105;-72
2023/04/01 00:39:51;;;;;;;8.18;5.00;;;;;;;8.48;100.00;99091.25;4857377;29;20075;-72
2023/04/01 00:42:16;;;;;;;8.77;5.05;;;;;;;8.48;100.00;99087.75;4853290;29;20466;-72
2023/04/01 00:44:42;;;;;;;8.20;4.95;;;;;;;8.48;100.00;99096.53;4855683;29;21106;-71
2023/04/01 00:47:08;;;;;;;8.30;5.10;;;;;;;8.48;100.00;99091.25;4855295;29;20120;-73
2023/04/01 00:49:39;;;;;;;8.57;5.32;;;;;;;8.49;100.00;99094.75;4857452;29;20056;-72
2023/04/01 00:52:07;;;;;;;8.82;5.18;;;;;;;8.49;100.00;99087.66;4869589;29;20559;-72
2023/04/01 00:54:34;;;;;;;9.38;5.30;;;;;;;8.51;100.00;99092.84;4889137;29;20055;-72
2023/04/01 00:57:02;;;;;;;10.13;5.47;;;;;;;8.49;100.00;99098.22;4878073;29;20682;-72
2023/04/01 00:59:34;;;;;;;9.25;5.25;;;;;;;8.49;100.00;99097.38;4877811;29;21542;-72
2023/04/01 01:02:02;;;;;;;7.80;5.03;;;;;;;8.50;100.00;99097.25;4890074;29;20142;-71
2023/04/01 01:04:30;;;;;;;6.43;3.70;;;;;;;8.48;100.00;99090.41;4894015;29;20602;-70
2023/04/01 01:07:05;;;;;;;4.25;2.17;;;;;;;8.42;100.00;99092.50;4877410;29;20266;-72
2023/04/01 01:09:55;;;;;;;2.60;1.77;;;;;;;8.36;100.00;99094.69;4894762;29;20231;-72
2023/04/01 01:12:25;;;;;;;1.80;1.50;;;;;;;8.33;100.00;99102.78;4893029;29;20095;-73
2023/04/01 01:15:14;;;;;;;3.67;2.05;;;;;;;8.33;100.00;99105.44;4877693;29;20526;-72
2023/04/01 01:18:05;;;;;;;3.85;2.50;;;;;;;8.31;100.00;99102.88;4894027;29;20078;-72
2023/04/01 01:20:36;;;;;;;5.80;2.97;;;;;;;8.34;100.00;99104.50;4890253;29;20090;-72
2023/04/01 01:23:05;;;;;;;5.65;3.45;;;;;;;8.35;100.00;99103.53;4894992;29;20055;-72
2023/04/01 01:25:45;;;;;;;6.90;4.13;;;;;;;8.37;100.00;99109.56;4893805;29;20052;-72
2023/04/01 01:28:26;;;;;;;10.57;4.68;;;;;;;8.37;100.00;99112.19;4876384;29;20416;-71
2023/04/01 01:30:58;;;;;;;8.82;5.18;;;;;;;8.38;100.00;99111.25;4892504;29;20048;-72
2023/04/01 01:33:35;;;;;;;9.40;5.53;;;;;;;8.39;100.00;99113.78;4894564;29;20100;-72
2023/04/01 01:36:05;;;;;;;9.55;5.53;;;;;;;8.38;100.00;99109.47;4879045;29;20748;-72
2023/04/01 01:38:33;;;;;;;10.55;5.85;;;;;;;8.39;100.00;99118.22;4866170;29;20162;-72
2023/04/01 01:40:59;;;;;;;10.68;5.95;;;;;;;8.40;100.00;99117.28;4884666;29;21641;-72
2023/04/01 01:43:27;;;;;;;10.45;5.78;;;;;;;8.41;100.00;99113.69;4892630;29;20108;-72
2023/04/01 01:45:55;;;;;;;9.80;5.80;;;;;;;8.40;100.00;99118.09;4891711;29;20086;-72
2023/04/01 01:48:22;;;;;;;11.30;5.70;;;;;;;8.41;100.00;99122.44;4892837;29;20059;-71
2023/04/01 01:50:48;;;;;;;10.35;5.45;;;;;;;8.41;100.00;99122.44;4895304;29;20044;-72
2023/04/01 01:53:14;;;;;;;12.90;6.43;;;;;;;8.43;100.00;99120.56;4874658;29;20487;-72
2023/04/01 01:55:42;;;;;;;11.68;6.22;;;;;;;8.43;100.00;99124.97;4892906;29;20662;-72
2023/04/01 01:58:29;;;;;;;10.07;5.93;;;;;;;8.44;100.00;99129.31;4895463;29;20044;-72
2023/04/01 02:00:58;;;;;;;10.73;5.28;;;;;;;8.44;100.00;99126.66;4895579;29;20112;-72
2023/04/01 02:03:25;;;;;;;9.95;5.25;;;;;;;8.43;100.00;99133.75;4875914;29;20051;-72
2023/04/01 02:05:52;;;;;;;8.82;5.35;;;;;;;8.43;100.00;99133.75;4871054;29;20048;-71
2023/04/01 02:08:26;;;;;;;10.00;5.38;;;;;;;8.45;100.00;99138.94;4889902;29;20704;-71
2023/04/01 02:10:57;;;;;;;10.15;6.15;;;;;;;8.46;100.00;99137.13;4880436;29;20048;-71
2023/04/01 02:13:36;;;;;;;10.68;5.90;;;;;;;8.47;100.00;99144.09;4873907;29;20088;-71
2023/04/01 02:16:07;;;;;;;11.70;6.05;;;;;;;8.47;100.00;99144.94;4893702;29;20058;-72
2023/04/01 02:18:35;;;;;;;10.82;6.07;;;;;;;8.47;100.00;99144.09;4893982;29;20120;-71
2023/04/01 02:21:01;;;;;;;10.77;6.22;;;;;;;8.48;100.00;99156.34;4874386;29;20183;-71
2023/04/01 02:23:28;;;;;;;11.00;6.00;;;;;;;8.47;100.00;99146.72;4875338;29;20059;-72
2023/04/01 02:25:54;;;;;;;11.20;6.03;;;;;;;8.48;100.00;99156.34;4875831;29;20058;-71
2023/04/01 02:28:20;;;;;;;10.77;5.75;;;;;;;8.48;100.00;99156.34;4875961;29;20060;-72
2023/04/01 02:30:46;;;;;;;10.27;5.75;;;;;;;8.49;100.00;99163.31;4893563;29;20447;-72
2023/04/01 02:33:12;;;;;;;12.35;6.30;;;;;;;8.49;100.00;99158.06;4878820;29;20055;-72
2023/04/01 02:35:37;;;;;;;14.27;6.43;;;;;;;8.49;100.00;99163.31;4891238;29;20416;-72
2023/04/01 02:38:04;;;;;;;11.63;5.97;;;;;;;8.49;100.00;99160.69;4888749;29;20059;-72
2023/04/01 02:40:29;;;;;;;11.57;5.75;;;;;;;8.48;100.00;99167.75;4892692;29;20036;-72
2023/04/01 02:42:55;;;;;;;9.05;5.05;;;;;;;8.48;100.00;99170.38;4876382;29;20036;-72
2023/04/01 02:45:20;;;;;;;11.52;5.38;;;;;;;8.47;100.00;99168.69;4877653;29;20096;-72
2023/04/01 02:47:46;;;;;;;9.45;5.32;;;;;;;8.47;100.00;99171.31;4892433;29;20052;-72
2023/04/01 02:50:11;;;;;;;11.82;5.32;;;;;;;8.46;100.00;99172.28;4893695;29;20282;-71
2023/04/01 02:52:37;;;;;;;12.15;5.60;;;;;;;8.48;100.00;99175.66;4894357;29;21018;-71
2023/04/01 02:55:04;;;;;;;12.90;6.45;;;;;;;8.48;100.00;99173.00;4891764;29;20048;-71
2023/04/01 02:57:30;;;;;;;11.75;6.53;;;;;;;8.48;100.00;99185.34;4874576;29;20060;-72
2023/04/01 02:59:55;;;;;;;10.45;5.60;;;;;;;8.47;100.00;99175.75;4892569;29;20046;-72
2023/04/01 03:02:21;;;;;;;13.50;6.85;;;;;;;8.47;100.00;99184.50;4894699;29;20040;-71
2023/04/01 03:04:46;;;;;;;12.43;6.95;;;;;;;8.47;100.00;99197.69;4890510;29;20536;-71
2023/04/01 03:07:12;;;;;;;13.90;6.70;;;;;;;8.47;100.00;99195.06;4895054;29;20123;-71
2023/04/01 03:09:38;;;;;;;14.48;6.68;;;;;;;8.47;100.00;99194.22;4893336;29;20154;-71
2023/04/01 03:12:04;;;;;;;11.43;5.90;;;;;;;8.46;100.00;99200.44;4887812;29;20575;-71
2023/04/01 03:14:30;;;;;;;10.25;5.95;;;;;;;8.46;100.00;99201.28;4892780;29;20112;-72
2023/04/01 03:16:55;;;;;;;11.52;5.55;;;;;;;8.46;100.00;99198.66;4877917;29;20056;-72
2023/04/01 03:19:21;;;;;;;13.25;6.05;;;;;;;8.44;100.00;99208.44;4875563;29;21712;-71
2023/04/01 03:21:46;;;;;;;12.98;6.18;;;;;;;8.43;100.00;99206.75;4893121;29;20723;-71
2023/04/01 03:24:12;;;;;;;11.98;5.93;;;;;;;8.43;100.00;99212.00;4871064;29;20060;-71
2023/04/01 03:26:37;;;;;;;12.07;6.53;;;;;;;8.41;100.00;99212.09;4893071;29;20094;-72
2023/04/01 03:29:03;;;;;;;12.63;5.88;;;;;;;8.41;100.00;99217.38;4891377;29;20051;-72
2023/04/01 03:31:28;;;;;;;9.80;5.50;;;;;;;8.41;100.00;99224.47;4893379;29;20059;-71
2023/04/01 03:33:54;;;;;;;10.82;5.75;;;;;;;8.42;100.00;99228.78;4873486;29;20163;-72
2023/04/01 03:36:20;;;;;;;13.05;6.30;;;;;;;8.41;100.00;99235.00;4876272;29;20048;-71
2023/04/01 03:38:46;;;;;;;11.43;6.53;;;;;;;8.41;100.00;99232.38;4874631;29;20484;-71
2023/04/01 03:41:13;;;;;;;12.18;5.70;;;;;;;8.40;100.00;99226.22;4876208;29;20726;-72
2023/04/01 03:43:38;;;;;;;12.43;6.45;;;;;;;8.40;100.00;99236.78;4875795;29;21608;-72
2023/04/01 03:46:04;;;;;;;11.23;5.97;;;;;;;8.40;100.00;99238.59;4892935;29;20590;-71
2023/04/01 03:48:30;;;;;;;13.02;6.20;;;;;;;8.39;100.00;99237.72;4877382;29;20829;-71
2023/04/01 03:50:55;;;;;;;13.38;5.90;;;;;;;8.40;100.00;99241.22;4872296;29;20060;-72
2023/04/01 03:53:21;;;;;;;12.70;6.57;;;;;;;8.40;100.00;99239.41;4893211;29;20362;-71
2023/04/01 03:55:47;;;;;;;11.27;6.35;;;;;;;8.40;100.00;99247.34;4892528;29;20040;-72
2023/04/01 03:58:12;;;;;;;12.77;6.45;;;;;;;8.41;100.00;99251.66;4873207;29;20127;-71
2023/04/01 04:00:38;;;;;;;13.43;7.05;;;;;;;8.40;100.00;99251.78;4871518;29;20052;-71
2023/04/01 04:03:05;;;;;;;14.85;6.78;;;;;;;8.40;100.00;99263.16;4891850;29;20037;-71
2023/04/01 04:05:31;;;;;;;15.10;7.25;;;;;;;8.41;100.00;99258.75;4875019;29;20138;-72
2023/04/01 04:07:56;;;;;;;14.18;7.32;;;;;;;8.43;100.00;99267.41;4891475;29;20077;-72
2023/04/01 04:10:23;;;;;;;14.20;6.57;;;;;;;8.43;100.00;99262.97;4890188;29;20380;-71
2023/04/01 04:12:49;;;;;;;14.85;7.38;;;;;;;8.43;100.00;99259.47;4894310;29;20054;-71
2023/04/01 04:15:15;;;;;;;12.55;6.57;;;;;;;8.43;100.00;99268.25;4884663;29;20633;-72
2023/04/01 04:17:41;;;;;;;13.20;6.72;;;;;;;8.44;100.00;99263.81;4872237;29;21674;-71
2023/04/01 04:20:08;;;;;;;13.52;7.03;;;;;;;8.45;100.00;99257.63;4890980;29;20090;-71
2023/04/01 04:22:33;;;;;;;13.32;7.20;;;;;;;8.46;100.00;99271.63;4889854;29;20079;-71
2023/04/01 04:24:59;;;;;;;14.82;7.43;;;;;;;8.46;100.00;99272.50;4889547;29;20131;-71
2023/04/01 04:27:24;;;;;;;13.25;7.50;;;;;;;8.46;100.00;99285.69;4890760;29;20091;-71
2023/04/01 04:29:50;;;;;;;16.30;7.03;;;;;;;8.47;100.00;99284.75;4878920;29;20212;-71
2023/04/01 04:32:15;;;;;;;13.25;6.32;;;;;;;8.46;100.00;99276.91;4879218;29;20051;-71
2023/04/01 04:34:41;;;;;;;13.80;6.65;;;;;;;8.48;100.00;99293.47;4844750;29;20060;-71
2023/04/01 04:37:07;;;;;;;15.25;7.07;;;;;;;8.49;100.00;99292.56;4896135;29;20067;-71
2023/04/01 04:39:32;;;;;;;14.02;6.95;;;;;;;8.47;100.00;99295.28;4894205;29;20066;-70
2023/04/01 04:41:58;;;;;;;16.48;7.97;;;;;;;8.48;100.00;99298.75;4894207;29;20048;-71
2023/04/01 04:44:23;;;;;;;14.48;7.38;;;;;;;8.47;100.00;99297.94;4895435;29;20583;-70
2023/04/01 04:46:49;;;;;;;14.95;7.15;;;;;;;8.48;100.00;99302.25;4895027;29;21936;-72
2023/04/01 04:49:15;;;;;;;13.85;7.10;;;;;;;8.47;100.00;99303.19;4895222;29;20119;-71
2023/04/01 04:51:40;;;;;;;15.20;6.95;;;;;;;8.47;100.00;99316.38;4895158;29;20059;-72
2023/04/01 04:54:06;;;;;;;15.60;7.90;;;;;;;8.48;100.00;99315.44;4894571;29;20823;-71
2023/04/01 04:56:32;;;;;;;12.68;7.13;;;;;;;8.48;100.00;99318.09;4877833;29;20044;-71
2023/04/01 04:58:57;;;;;;;14.20;6.28;;;;;;;8.47;100.00;99319.03;4895025;29;20056;-72
2023/04/01 05:01:23;;;;;;;14.57;7.03;;;;;;;8.48;100.00;99317.22;4879383;29;20050;-71
2023/04/01 05:03:49;;;;;;;14.43;7.50;;;;;;;8.47;100.00;99323.44;4890291;29;20111;-72
2023/04/01 05:06:16;;;;;;;15.07;6.93;;;;;;;8.46;100.00;99325.25;4896419;29;20520;-71
2023/04/01 05:08:42;;;;;;;16.23;7.38;;;;;;;8.46;100.00;99327.88;4861627;29;20062;-72
2023/04/01 05:11:14;;;;;;;16.15;7.72;;;;;;;8.44;100.00;99327.13;4881344;29;20040;-72
2023/04/01 05:13:41;;;;;;;13.30;6.95;;;;;;;8.45;100.00;99339.38;4892069;29;20057;-72
2023/04/01 05:16:19;;;;;;;14.15;7.18;;;;;;;8.44;100.00;99335.03;4862656;29;20039;-72
2023/04/01 05:18:44;;;;;;;16.00;7.18;;;;;;;8.45;100.00;99333.25;4877478;29;20052;-71
2023/04/01 05:21:11;;;;;;;17.33;8.10;;;;;;;8.44;100.00;99342.94;4863852;29;20550;-72
2023/04/01 05:23:37;;;;;;;16.98;7.63;;;;;;;8.44;100.00;99350.84;4878643;29;20484;-71
2023/04/01 05:26:10;;;;;;;15.50;7.65;;;;;;;8.45;100.00;99349.94;4877280;29;20071;-71
2023/04/01 05:28:36;;;;;;;16.35;8.40;;;;;;;8.46;100.00;99356.03;4896117;29;20048;-71
2023/04/01 05:31:03;;;;;;;18.02;8.32;;;;;;;8.46;100.00;99353.41;4895410;29;20130;-72
2023/04/01 05:33:29;;;;;;;19.55;7.78;;;;;;;8.45;100.00;99363.13;4896153;29;20048;-72
2023/04/01 05:35:55;;;;;;;18.33;8.38;;;;;;;8.44;100.00;99358.75;4879475;29;20158;-71
2023/04/01 05:38:20;;;;;;;17.38;8.73;;;;;;;8.46;100.00;99363.94;4863491;29;20046;-71
2023/04/01 05:40:46;;;;;;;18.88;8.57;;;;;;;8.46;100.00;99367.44;4878532;29;20132;-71
2023/04/01 05:43:11;;;;;;;20.88;8.77;;;;;;;8.46;100.00;99371.88;4894845;29;20058;-72
2023/04/01 05:45:37;;;;;;;17.23;8.68;;;;;;;8.46;100.00;99378.00;4894981;29;20048;-72
2023/04/01 05:48:03;;;;;;;18.65;8.32;;;;;;;8.48;100.00;99385.81;4876207;29;20100;-72
2023/04/01 05:50:29;;;;;;;18.70;8.88;;;;;;;8.47;100.00;99379.69;4894497;29;20037;-72
2023/04/01 05:52:54;;;;;;;20.05;8.95;;;;;;;8.47;100.00;99384.97;4895556;29;20548;-71
2023/04/01 05:55:20;;;;;;;19.10;8.73;;;;;;;8.48;100.00;99394.56;4895213;29;20526;-71
2023/04/01 05:57:48;;;;;;;18.80;9.15;;;;;;;8.48;100.00;99393.72;4895516;29;20040;-71
2023/04/01 06:00:14;;;;;;;19.88;9.23;;;;;;;8.48;100.00;99405.13;4877962;29;20055;-72
2023/04/01 06:02:42;;;;;;;22.92;10.15;;;;;;;8.49;100.00;99405.97;4896803;29;20040;-71
2023/04/01 06:05:17;;;;;;;18.27;8.95;;;;;;;8.49;100.00;99414.72;4895057;29;20659;-72
2023/04/01 06:07:43;;;;;;;20.75;9.13;;;;;;;8.49;100.00;99403.34;4895270;29;20572;-72
2023/04/01 06:10:15;;;;;;;16.98;7.75;;;;;;;8.50;100.00;99413.78;4877944;29;20072;-72
2023/04/01 06:12:56;;;;;;;19.23;8.70;;;;;;;8.50;100.00;99415.59;4895132;29;20046;-72
2023/04/01 06:15:37;;;;;;;17.38;7.88;;;;;;;8.51;100.00;99417.28;4891618;29;20555;-72
2023/04/01 06:18:34;;;;;;;17.98;8.27;;;;;;;8.52;100.00;99422.50;4894163;29;21017;-71
2023/04/01 06:21:12;;;;;;;19.27;8.48;;;;;;;8.52;100.00;99425.16;4877477;29;20591;-71
2023/04/01 06:23:41;;;;;;;18.92;8.65;;;;;;;8.51;100.00;99433.97;4878646;29;20489;-71
2023/04/01 06:26:17;;;;;;;19.48;9.10;;;;;;;8.51;100.00;99439.25;4874920;29;20447;-71
2023/04/01 06:29:10;;;;;;;16.80;8.10;;;;;;;8.52;100.00;99440.13;4891290;29;20051;-71
2023/04/01 06:32:16;;;;;;;23.05;9.45;;;;;;;8.51;100.00;99441.88;4894598;29;20055;-71
2023/04/01 06:35:10;;;;;;;20.48;8.50;;;;;;;8.52;100.00;99445.38;4893263;29;20610;-71
2023/04/01 06:37:54;;;;;;;18.33;7.88;;;;;;;8.51;100.00;99449.81;4892775;29;20048;-71
2023/04/01 06:40:22;;;;;;;20.50;9.00;;;;;;;8.51;100.00;99452.44;4880018;29;20040;-71
2023/04/01 06:43:08;;;;;;;18.58;8.45;;;;;;;8.53;100.00;99457.63;4895583;29;20518;-71
2023/04/01 06:45:59;;;;;;;21.75;8.85;;;;;;;8.53;100.00;99457.63;4889681;29;20154;-71
2023/04/01 06:48:34;;;;;;;17.50;8.40;;;;;;;8.53;100.00;99462.91;4864079;29;20541;-71
2023/04/01 06:51:24;;;;;;;19.25;8.60;;;;;;;8.52;100.00;99464.72;4876623;29;20554;-71
2023/04/01 06:54:04;;;;;;;18.98;8.93;;;;;;;8.51;100.00;99467.41;4892111;29;20062;-71
2023/04/01 06:56:32;;;;;;;18.98;8.85;;;;;;;8.52;100.00;99482.31;4878827;29;20263;-71
2023/04/01 06:59:21;;;;;;;17.75;8.32;;;;;;;8.52;100.00;99482.31;4878922;29;20048;-71
2023/04/01 07:01:46;;;;;;;18.80;8.27;;;;;;;8.53;100.00;99484.88;4892728;29;20051;-72
2023/04/01 07:04:34;;;;;;;18.30;8.50;;;;;;;8.56;100.00;99489.13;4894618;29;20052;-71
2023/04/01 07:07:08;;;;;;;17.45;8.38;;;;;;;8.58;100.00;99489.00;4876397;29;20063;-71
2023/04/01 07:09:48;;;;;;;18.83;9.00;;;;;;;8.59;100.00;99491.56;4874562;29;20567;-72
2023/04/01 07:12:33;;;;;;;15.77;7.03;;;;;;;8.59;100.00;99499.47;4889505;29;20095;-72
2023/04/01 07:15:05;;;;;;;17.85;8.02;;;;;;;8.62;100.00;99506.38;4892408;29;20124;-72
2023/04/01 07:17:33;;;;;;;16.90;7.78;;;;;;;8.63;100.00;99510.69;4872435;29;20051;-72
2023/04/01 07:20:04;;;;;;;17.20;8.07;;;;;;;8.60;100.00;99503.81;4861124;29;20048;-72
2023/04/01 07:22:33;;;;;;;17.60;8.18;;;;;;;8.61;100.00;99515.22;4892581;29;20036;-72
2023/04/01 07:25:08;;;;;;;16.67;8.40;;;;;;;8.61;100.00;99529.25;4875790;29;20361;-72
2023/04/01 07:27:33;;;;;;;18.13;8.20;;;;;;;8.62;100.00;99530.13;4874032;29;20082;-72
2023/04/01 07:30:01;;;;;;;17.58;7.72;;;;;;;8.60;100.00;99532.84;4893518;29;20052;-72
2023/04/01 07:32:26;;;;;;;15.05;6.97;;;;;;;8.59;100.00;99539.06;4876771;29;20052;-72
2023/04/01 07:35:15;;;;;;;17.88;6.90;;;;;;;8.58;100.00;99532.09;4892297;29;20044;-72
2023/04/01 07:37:46;;;;;;;13.52;6.43;;;;;;;8.58;100.00;99539.13;4892201;29;20167;-72
2023/04/01 07:40:24;;;;;;;14.63;6.38;;;;;;;8.59;100.00;99546.09;4893338;29;20043;-71
2023/04/01 07:43:15;;;;;;;16.00;7.25;;;;;;;8.58;100.00;99549.69;4883650;29;20075;-71
2023/04/01 07:45:50;;;;;;;15.68;7.45;;;;;;;8.59;100.00;99557.53;4893185;29;20099;-71
2023/04/01 07:48:34;;;;;;;17.42;7.50;;;;;;;8.60;100.00;99559.22;4875698;29;20068;-72
2023/04/01 07:51:05;;;;;;;16.05;7.43;;;;;;;8.61;100.00;99555.63;4891642;29;20040;-72
2023/04/01 07:53:39;;;;;;;18.23;7.47;;;;;;;8.62;100.00;99573.19;4876884;29;20440;-71
2023/04/01 07:56:20;;;;;;;19.42;8.65;;;;;;;8.64;100.00;99573.09;4893281;29;20474;-71
2023/04/01 07:59:10;;;;;;;15.38;7.32;;;;;;;8.64;100.00;99576.59;4891189;29;20056;-71
2023/04/01 08:02:09;;;;;;;22.48;9.05;;;;;;;8.69;100.00;99578.94;4893517;29;20110;-71
2023/04/01 08:04:41;;;;;;;18.58;8.38;;;;;;;8.71;100.00;99592.91;4897364;29;20059;-71
2023/04/01 08:07:24;;;;;;;21.03;9.10;;;;;;;8.72;100.00;99591.94;4866595;29;20443;-71
2023/04/01 08:09:58;;;;;;;17.70;8.75;;;;;;;8.77;100.00;99597.81;4894450;29;20511;-72
2023/04/01 08:12:39;;;;;;;21.88;8.50;;;;;;;8.78;100.00;99599.50;4896332;29;20048;-71
2023/04/01 08:15:13;;;;;;;20.40;8.40;;;;;;;8.80;100.00;99602.94;4896351;29;20546;-72
2023/04/01 08:17:57;;;;;;;22.02;9.50;;;;;;;8.83;100.00;99609.84;4878741;29;20048;-71
2023/04/01 08:20:43;;;;;;;21.08;9.15;;;;;;;8.86;100.00;99616.69;4892602;29;20505;-71
2023/04/01 08:23:17;;;;;;;20.02;8.60;;;;;;;8.88;100.00;99620.13;4888111;29;20048;-71
2023/04/01 08:26:10;;;;;;;21.63;9.60;;;;;;;8.89;100.00;99627.94;4880102;29;20083;-71
2023/04/01 08:28:55;;;;;;;20.27;9.40;;;;;;;8.92;100.00;99626.91;4861361;29;20108;-72
2023/04/01 08:31:40;;;;;;;20.13;9.15;;;;;;;8.94;100.00;99631.16;4879384;29;20918;-71
2023/04/01 08:34:15;;;;;;;21.58;9.52;;;;;;;8.99;100.00;99636.16;4880512;29;20050;-71
2023/04/01 08:36:45;;;;;;;22.42;9.55;;;;;;;9.02;100.00;99636.00;4877467;29;20089;-72
2023/04/01 08:39:22;;;;;;;22.95;10.38;;;;;;;9.06;100.00;99642.78;4881143;29;20043;-71
2023/04/01 08:42:01;;;;;;;21.92;9.95;;;;;;;9.10;100.00;99646.13;4880721;29;20638;-71
2023/04/01 08:44:48;;;;;;;23.27;9.75;;;;;;;9.14;100.00;99649.44;4876925;29;20063;-72
2023/04/01 08:47:24;;;;;;;25.80;10.77;;;;;;;9.14;100.00;99657.34;4881421;29;20052;-72
2023/04/01 08:50:01;;;;;;;22.08;9.25;;;;;;;9.12;100.00;99659.22;4895108;29;20036;-72
2023/04/01 08:53:00;;;;;;;21.25;9.15;;;;;;;9.10;100.00;99669.88;4878465;29;20072;-72
2023/04/01 08:55:26;;;;;;;23.15;9.68;;;;;;;9.08;100.00;99663.81;4880548;29;20048;-72
2023/04/01 08:58:16;;;;;;;19.63;8.57;;;;;;;9.08;100.00;99674.38;4896407;29;20143;-71
2023/04/01 09:00:55;;;;;;;19.60;8.80;;;;;;;9.10;100.00;99686.56;4894582;29;20056;-71
2023/04/01 09:03:25;;;;;;;20.88;8.75;;;;;;;9.10;100.00;99676.00;4877495;29;20159;-72
2023/04/01 09:06:02;;;;;;;17.73;8.43;;;;;;;9.09;100.00;99690.16;4883195;29;20052;-72
2023/04/01 09:08:49;;;;;;;17.58;7.68;;;;;;;9.10;100.00;99688.38;4896692;29;20055;-72
2023/04/01 09:11:30;;;;;;;14.70;6.93;;;;;;;9.12;100.00;99693.53;4894652;29;20055;-72
2023/04/01 09:14:23;;;;;;;15.93;7.22;;;;;;;9.13;100.00;99692.59;4879629;29;20188;-72
2023/04/01 09:16:57;;;;;;;15.73;6.57;;;;;;;9.15;100.00;99696.84;4893720;29;20047;-71
2023/04/01 09:19:55;;;;;;;14.73;6.85;;;;;;;9.18;100.00;99703.75;4879251;29;20380;-71
2023/04/01 09:22:51;;;;;;;11.20;5.57;;;;;;;9.22;100.00;99698.19;4875553;29;20456;-72
2023/04/01 09:25:24;;;;;;;13.07;6.25;;;;;;;9.25;100.00;99707.75;4877966;29;20092;-72
2023/04/01 09:28:03;;;;;;;13.10;6.10;;;;;;;9.30;100.00;99710.97;4878524;29;20036;-72
2023/04/01 09:30:33;;;;;;;14.95;6.35;;;;;;;9.36;100.00;99715.91;4878344;29;20044;-72
2023/04/01 09:33:17;;;;;;;13.18;6.03;;;;;;;9.45;100.00;99709.22;4877320;29;20043;-72
2023/04/01 09:35:56;;;;;;;12.57;5.88;;;;;;;9.51;100.00;99718.56;4893106;29;20052;-72
2023/04/01 09:38:30;;;;;;;13.10;6.20;;;;;;;9.53;100.00;99718.50;4891837;29;20048;-71
2023/04/01 09:40:55;;;;;;;12.23;6.38;;;;;;;9.54;100.00;99730.75;4879706;29;20055;-72
2023/04/01 09:44:06;;;;;;;9.32;5.28;;;;;;;9.48;100.00;99734.63;4895376;29;20044;-72
2023/04/01 09:47:09;;;;;;;10.30;5.38;;;;;;;9.41;100.00;99739.41;4872726;29;20598;-72
2023/04/01 09:49:47;;;;;;;8.52;4.78;;;;;;;9.42;100.00;99740.25;4896501;29;22113;-71
2023/04/01 09:52:18;;;;;;;10.45;5.40;;;;;;;9.40;100.00;99748.28;4895871;29;20054;-71
2023/04/01 09:55:29;;;;;;;8.43;5.28;;;;;;;9.40;100.00;99757.97;4893904;29;20163;-72
2023/04/01 09:58:46;;;;;;;9.20;5.10;;;;;;;9.36;100.00;99763.44;4880319;29;21519;-72
2023/04/01 10:01:28;;;;;;;7.80;4.28;;;;;;;9.29;100.00;99762.09;4874092;29;20062;-72
2023/04/01 10:04:18;;;;;;;7.15;4.07;;;;;;;9.32;100.00;99769.00;4876391;29;20060;-72
2023/04/01 10:06:51;;;;;;;6.05;3.63;;;;;;;9.31;100.00;99773.41;4896521;29;20208;-72
2023/04/01 10:09:51;;;;;;;6.60;4.00;;;;;;;9.29;100.00;99783.22;4878583;29;20138;-72
2023/04/01 10:12:38;;;;;;;7.18;4.40;;;;;;;9.27;100.00;99786.88;4895214;29;20533;-72
2023/04/01 10:15:35;;;;;;;8.20;4.57;;;;;;;9.25;100.00;99792.25;4894817;29;20053;-72
2023/04/01 10:18:18;;;;;;;9.20;5.18;;;;;;;9.24;100.00;99801.13;4893068;29;20111;-73
2023/04/01 10:21:07;;;;;;;9.43;5.18;;;;;;;9.22;100.00;99797.72;4894607;29;20043;-72
2023/04/01 10:23:48;;;;;;;9.02;5.78;;;;;;;9.30;100.00;99803.41;4880184;29;20326;-72
2023/04/01 10:26:55;;;;;;;8.70;4.72;;;;;;;9.34;100.00;99804.09;4873001;29;20052;-72
2023/04/01 10:29:23;;;;;;;8.48;5.40;;;;;;;9.35;100.00;99808.44;4895120;29;20056;-72
2023/04/01 10:32:38;;;;;;;7.43;5.20;;;;;;;9.36;100.00;99812.78;4894541;29;20131;-72
2023/04/01 10:35:35;;;;;;;8.68;5.57;;;;;;;9.33;100.00;99813.78;4887671;29;20078;-72
2023/04/01 10:38:26;;;;;;;8.40;5.40;;;;;;;9.36;100.00;99816.28;4892249;29;20099;-72
2023/04/01 10:41:18;;;;;;;7.63;5.10;;;;;;;9.38;100.00;99818.84;4894554;29;20712;-72
2023/04/01 10:44:01;;;;;;;9.98;6.50;;;;;;;9.38;100.00;99826.75;4889268;29;20492;-72
2023/04/01 10:47:02;;;;;;;9.02;6.07;;;;;;;9.32;100.00;99840.31;4892566;29;20123;-72
2023/04/01 10:49:34;;;;;;;7.18;4.47;;;;;;;9.24;100.00;99827.53;4856597;29;20507;-72
2023/04/01 10:52:34;;;;;;;5.72;4.20;;;;;;;9.21;100.00;99843.56;4891961;29;20337;-72
2023/04/01 10:55:18;;;;;;;5.88;4.03;;;;;;;9.19;100.00;99845.41;4891734;29;20087;-72
2023/04/01 10:58:14;;;;;;;6.05;3.85;;;;;;;9.17;100.00;99849.94;4891688;29;20048;-72
2023/04/01 11:00:39;;;;;;;6.25;3.78;;;;;;;9.15;100.00;99849.19;4861955;29;20463;-72
2023/04/01 11:03:33;;;;;;;6.60;3.90;;;;;;;9.17;100.00;99849.94;4893718;29;20040;-72
2023/04/01 11:06:17;;;;;;;7.57;4.53;;;;;;;9.09;100.00;99859.13;4875878;29;20415;-72
2023/04/01 11:09:04;;;;;;;5.85;3.72;;;;;;;9.09;100.00;99869.69;4891706;29;20047;-72
2023/04/01 11:12:02;;;;;;;4.80;3.88;;;;;;;9.09;100.00;99871.47;4893470;29;20073;-72
2023/04/01 11:14:46;;;;;;;6.85;3.97;;;;;;;9.08;100.00;99867.13;4879321;29;20404;-72
2023/04/01 11:18:00;;;;;;;6.05;4.07;;;;;;;9.07;100.00;99882.16;4875461;29;20527;-72
2023/04/01 11:21:07;;;;;;;7.65;4.38;;;;;;;9.08;100.00;99889.13;4849733;29;20048;-72
2023/04/01 11:23:38;;;;;;;7.20;3.85;;;;;;;9.04;100.00;99894.66;4892589;29;20138;-72
2023/04/01 11:26:32;;;;;;;6.68;3.90;;;;;;;8.98;100.00;99893.19;4888116;29;20147;-72
2023/04/01 11:29:23;;;;;;;8.30;4.60;;;;;;;9.00;100.00;99907.19;4891821;29;20127;-72
2023/04/01 11:32:02;;;;;;;4.85;3.60;;;;;;;8.97;100.00;99907.31;4870900;29;20056;-73
2023/04/01 11:34:42;;;;;;;5.03;3.85;;;;;;;8.98;100.00;99916.94;4889299;29;20048;-72
2023/04/01 11:37:52;;;;;;;5.75;4.13;;;;;;;8.99;100.00;99918.66;4875503;29;20079;-73
2023/04/01 11:40:29;;;;;;;4.93;3.80;;;;;;;9.04;100.00;99923.69;4854875;29;20149;-72
2023/04/01 11:43:06;;;;;;;5.50;3.40;;;;;;;9.07;100.00;99926.16;4840714;29;20060;-72
2023/04/01 11:45:50;;;;;;;5.32;3.20;;;;;;;9.05;100.00;99928.88;4860029;29;20813;-72
2023/04/01 11:48:45;;;;;;;5.68;3.60;;;;;;;9.07;100.00;99934.09;4898004;29;20056;-72
2023/04/01 11:51:39;;;;;;;3.50;2.65;;;;;;;9.02;100.00;99931.69;4896529;29;20119;-72
2023/04/01 11:54:47;;;;;;;5.75;3.40;;;;;;;8.99;100.00;99937.13;4894590;29;20159;-72
2023/04/01 11:57:50;;;;;;;3.85;2.90;;;;;;;9.02;100.00;99947.53;4897323;29;20056;-73
2023/04/01 12:00:18;;;;;;;3.35;2.85;;;;;;;9.03;100.00;99951.88;4897625;29;20071;-72
2023/04/01 12:03:06;;;;;;;3.00;2.58;;;;;;;9.08;100.00;99951.63;4894710;29;20078;-72